sensor_id;sensor_type;location;lat;lon;timestamp;temperature;humidity
76789;DHT22;65740;52.464;13.446;2023-08-07T00:00:04;20.90;53.30
76789;DHT22;65740;52.464;13.446;2023-08-07T00:02:30;20.90;53.30
76789;DHT22;65740;52.464;13.446;2023-08-07T00:04:55;20.90;53.20
76789;DHT22;65740;52.464;13.446;2023-08-07T00:07:22;20.90;53.20
76789;DHT22;65740;52.464;13.446;2023-08-07T00:09:50;20.90;53.20
76789;DHT22;65740;52.464;13.446;2023-08-07T00:12:16;20.90;53.10
76789;DHT22;65740;52.464;13.446;2023-08-07T00:14:41;20.90;53.10
76789;DHT22;65740;52.464;13.446;2023-08-07T00:17:07;20.90;53.10
76789;DHT22;65740;52.464;13.446;2023-08-07T00:19:34;20.90;53.00
76789;DHT22;65740;52.464;13.446;2023-08-07T00:21:59;20.90;53.10
76789;DHT22;65740;52.464;13.446;2023-08-07T00:24:25;20.90;53.10
76789;DHT22;65740;52.464;13.446;2023-08-07T00:26:51;20.90;53.00
76789;DHT22;65740;52.464;13.446;2023-08-07T00:29:16;20.80;52.90
76789;DHT22;65740;52.464;13.446;2023-08-07T00:31:42;20.90;53.10
76789;DHT22;65740;52.464;13.446;2023-08-07T00:34:08;20.90;53.00
76789;DHT22;65740;52.464;13.446;2023-08-07T00:36:35;20.80;52.90
76789;DHT22;65740;52.464;13.446;2023-08-07T00:39:01;20.90;53.00
76789;DHT22;65740;52.464;13.446;2023-08-07T00:41:29;20.90;52.90
76789;DHT22;65740;52.464;13.446;2023-08-07T00:43:54;20.90;52.90
76789;DHT22;65740;52.464;13.446;2023-08-07T00:46:20;20.90;52.90
76789;DHT22;65740;52.464;13.446;2023-08-07T00:48:46;20.80;52.70
76789;DHT22;65740;52.464;13.446;2023-08-07T00:51:12;20.90;53.40
76789;DHT22;65740;52.464;13.446;2023-08-07T00:53:38;20.90;52.70
76789;DHT22;65740;52.464;13.446;2023-08-07T00:56:05;20.80;52.60
76789;DHT22;65740;52.464;13.446;2023-08-07T00:58:31;20.80;52.70
76789;DHT22;65740;52.464;13.446;2023-08-07T01:00:57;20.80;52.60
76789;DHT22;65740;52.464;13.446;2023-08-07T01:03:24;20.80;53.20
76789;DHT22;65740;52.464;13.446;2023-08-07T01:05:50;20.80;52.60
76789;DHT22;65740;52.464;13.446;2023-08-07T01:08:16;20.80;52.60
76789;DHT22;65740;52.464;13.446;2023-08-07T01:13:31;20.80;52.50
76789;DHT22;65740;52.464;13.446;2023-08-07T01:16:01;20.80;52.60
76789;DHT22;65740;52.464;13.446;2023-08-07T01:18:28;20.80;52.60
76789;DHT22;65740;52.464;13.446;2023-08-07T01:20:55;20.80;52.50
76789;DHT22;65740;52.464;13.446;2023-08-07T01:23:20;20.70;52.50
76789;DHT22;65740;52.464;13.446;2023-08-07T01:25:46;20.80;52.70
76789;DHT22;65740;52.464;13.446;2023-08-07T01:28:19;20.80;52.70
76789;DHT22;65740;52.464;13.446;2023-08-07T01:30:50;20.70;52.60
76789;DHT22;65740;52.464;13.446;2023-08-07T01:34:18;20.70;52.60
76789;DHT22;65740;52.464;13.446;2023-08-07T01:36:38;20.70;52.60
76789;DHT22;65740;52.464;13.446;2023-08-07T01:39:05;20.70;52.50
76789;DHT22;65740;52.464;13.446;2023-08-07T01:41:32;20.70;52.60
76789;DHT22;65740;52.464;13.446;2023-08-07T01:43:59;20.70;52.60
76789;DHT22;65740;52.464;13.446;2023-08-07T01:46:25;20.70;52.50
76789;DHT22;65740;52.464;13.446;2023-08-07T01:48:50;20.70;52.50
76789;DHT22;65740;52.464;13.446;2023-08-07T01:51:16;20.70;52.50
76789;DHT22;65740;52.464;13.446;2023-08-07T01:53:41;20.70;52.40
76789;DHT22;65740;52.464;13.446;2023-08-07T01:56:07;20.70;52.50
76789;DHT22;65740;52.464;13.446;2023-08-07T01:58:32;20.70;52.40
76789;DHT22;65740;52.464;13.446;2023-08-07T02:00:58;20.70;52.30
76789;DHT22;65740;52.464;13.446;2023-08-07T02:03:24;20.70;52.30
76789;DHT22;65740;52.464;13.446;2023-08-07T02:05:49;20.70;52.30
76789;DHT22;65740;52.464;13.446;2023-08-07T02:08:15;20.60;52.30
76789;DHT22;65740;52.464;13.446;2023-08-07T02:10:41;20.60;52.30
76789;DHT22;65740;52.464;13.446;2023-08-07T02:13:06;20.70;52.30
76789;DHT22;65740;52.464;13.446;2023-08-07T02:15:32;20.70;52.30
76789;DHT22;65740;52.464;13.446;2023-08-07T02:17:57;20.60;52.20
76789;DHT22;65740;52.464;13.446;2023-08-07T02:20:23;20.60;52.20
76789;DHT22;65740;52.464;13.446;2023-08-07T02:22:49;20.60;52.20
76789;DHT22;65740;52.464;13.446;2023-08-07T02:25:15;20.60;52.20
76789;DHT22;65740;52.464;13.446;2023-08-07T02:27:40;20.60;52.10
76789;DHT22;65740;52.464;13.446;2023-08-07T02:30:06;20.60;52.10
76789;DHT22;65740;52.464;13.446;2023-08-07T02:32:32;20.60;52.10
76789;DHT22;65740;52.464;13.446;2023-08-07T02:34:58;20.60;52.20
76789;DHT22;65740;52.464;13.446;2023-08-07T02:37:24;20.60;52.10
76789;DHT22;65740;52.464;13.446;2023-08-07T02:39:49;20.60;52.00
76789;DHT22;65740;52.464;13.446;2023-08-07T02:42:15;20.60;52.10
76789;DHT22;65740;52.464;13.446;2023-08-07T02:44:40;20.60;52.10
76789;DHT22;65740;52.464;13.446;2023-08-07T02:47:06;20.60;52.10
76789;DHT22;65740;52.464;13.446;2023-08-07T02:49:32;20.60;52.00
76789;DHT22;65740;52.464;13.446;2023-08-07T02:51:57;20.60;52.10
76789;DHT22;65740;52.464;13.446;2023-08-07T02:54:23;20.60;52.10
76789;DHT22;65740;52.464;13.446;2023-08-07T02:56:49;20.50;51.90
76789;DHT22;65740;52.464;13.446;2023-08-07T02:59:15;20.50;52.00
76789;DHT22;65740;52.464;13.446;2023-08-07T03:01:41;20.50;51.80
76789;DHT22;65740;52.464;13.446;2023-08-07T03:04:07;20.50;51.90
76789;DHT22;65740;52.464;13.446;2023-08-07T03:06:33;20.50;51.90
76789;DHT22;65740;52.464;13.446;2023-08-07T03:08:58;20.60;52.00
76789;DHT22;65740;52.464;13.446;2023-08-07T03:11:24;20.50;52.00
76789;DHT22;65740;52.464;13.446;2023-08-07T03:13:50;20.50;52.00
76789;DHT22;65740;52.464;13.446;2023-08-07T03:16:15;20.50;52.10
76789;DHT22;65740;52.464;13.446;2023-08-07T03:18:41;20.50;52.00
76789;DHT22;65740;52.464;13.446;2023-08-07T03:21:06;20.50;52.00
76789;DHT22;65740;52.464;13.446;2023-08-07T03:23:32;20.50;52.00
76789;DHT22;65740;52.464;13.446;2023-08-07T03:26:16;20.50;52.00
76789;DHT22;65740;52.464;13.446;2023-08-07T03:28:42;20.50;52.00
76789;DHT22;65740;52.464;13.446;2023-08-07T03:31:07;20.50;52.00
76789;DHT22;65740;52.464;13.446;2023-08-07T03:33:33;20.50;52.00
76789;DHT22;65740;52.464;13.446;2023-08-07T03:35:59;20.50;52.10
76789;DHT22;65740;52.464;13.446;2023-08-07T03:38:24;20.50;52.00
76789;DHT22;65740;52.464;13.446;2023-08-07T03:40:51;20.50;52.00
76789;DHT22;65740;52.464;13.446;2023-08-07T03:43:16;20.40;52.00
76789;DHT22;65740;52.464;13.446;2023-08-07T03:45:42;20.50;52.00
76789;DHT22;65740;52.464;13.446;2023-08-07T03:48:07;20.50;52.00
76789;DHT22;65740;52.464;13.446;2023-08-07T03:50:33;20.50;51.90
76789;DHT22;65740;52.464;13.446;2023-08-07T03:53:05;20.40;51.90
76789;DHT22;65740;52.464;13.446;2023-08-07T03:55:32;20.40;51.90
76789;DHT22;65740;52.464;13.446;2023-08-07T03:57:58;20.40;51.90
76789;DHT22;65740;52.464;13.446;2023-08-07T04:00:23;20.40;51.80
76789;DHT22;65740;52.464;13.446;2023-08-07T04:02:49;20.40;51.80
76789;DHT22;65740;52.464;13.446;2023-08-07T04:05:14;20.40;51.80
76789;DHT22;65740;52.464;13.446;2023-08-07T04:07:40;20.40;51.90
76789;DHT22;65740;52.464;13.446;2023-08-07T04:10:06;20.40;51.90
76789;DHT22;65740;52.464;13.446;2023-08-07T04:12:31;20.40;51.90
76789;DHT22;65740;52.464;13.446;2023-08-07T04:14:57;20.40;51.80
76789;DHT22;65740;52.464;13.446;2023-08-07T04:17:23;20.40;52.50
76789;DHT22;65740;52.464;13.446;2023-08-07T04:19:48;20.40;51.70
76789;DHT22;65740;52.464;13.446;2023-08-07T04:22:14;20.40;51.60
76789;DHT22;65740;52.464;13.446;2023-08-07T04:24:40;20.40;51.80
76789;DHT22;65740;52.464;13.446;2023-08-07T04:27:05;20.40;51.70
76789;DHT22;65740;52.464;13.446;2023-08-07T04:29:31;20.40;51.70
76789;DHT22;65740;52.464;13.446;2023-08-07T04:31:56;20.40;51.80
76789;DHT22;65740;52.464;13.446;2023-08-07T04:34:22;20.40;51.70
76789;DHT22;65740;52.464;13.446;2023-08-07T04:36:48;20.40;51.80
76789;DHT22;65740;52.464;13.446;2023-08-07T04:39:15;20.40;51.80
76789;DHT22;65740;52.464;13.446;2023-08-07T04:41:41;20.40;51.70
76789;DHT22;65740;52.464;13.446;2023-08-07T04:44:07;20.40;51.70
76789;DHT22;65740;52.464;13.446;2023-08-07T04:46:32;20.40;51.70
76789;DHT22;65740;52.464;13.446;2023-08-07T04:48:59;20.40;51.70
76789;DHT22;65740;52.464;13.446;2023-08-07T04:51:26;20.40;51.80
76789;DHT22;65740;52.464;13.446;2023-08-07T04:53:52;20.40;51.80
76789;DHT22;65740;52.464;13.446;2023-08-07T04:56:17;20.40;51.90
76789;DHT22;65740;52.464;13.446;2023-08-07T04:58:43;20.40;51.80
76789;DHT22;65740;52.464;13.446;2023-08-07T05:01:08;20.40;51.70
76789;DHT22;65740;52.464;13.446;2023-08-07T05:03:34;20.40;51.80
76789;DHT22;65740;52.464;13.446;2023-08-07T05:06:01;20.40;51.80
76789;DHT22;65740;52.464;13.446;2023-08-07T05:08:26;20.30;52.40
76789;DHT22;65740;52.464;13.446;2023-08-07T05:10:52;20.30;51.80
76789;DHT22;65740;52.464;13.446;2023-08-07T05:13:18;20.30;51.80
76789;DHT22;65740;52.464;13.446;2023-08-07T05:15:43;20.30;51.80
76789;DHT22;65740;52.464;13.446;2023-08-07T05:18:09;20.30;51.80
76789;DHT22;65740;52.464;13.446;2023-08-07T05:20:34;20.30;51.80
76789;DHT22;65740;52.464;13.446;2023-08-07T05:23:00;20.30;51.80
76789;DHT22;65740;52.464;13.446;2023-08-07T05:25:26;20.30;51.80
76789;DHT22;65740;52.464;13.446;2023-08-07T05:27:51;20.30;51.80
76789;DHT22;65740;52.464;13.446;2023-08-07T05:30:17;20.30;51.80
76789;DHT22;65740;52.464;13.446;2023-08-07T05:32:42;20.30;51.70
76789;DHT22;65740;52.464;13.446;2023-08-07T05:35:08;20.30;51.80
76789;DHT22;65740;52.464;13.446;2023-08-07T05:37:35;20.30;51.70
76789;DHT22;65740;52.464;13.446;2023-08-07T05:40:02;20.30;51.80
76789;DHT22;65740;52.464;13.446;2023-08-07T05:42:28;20.30;51.80
76789;DHT22;65740;52.464;13.446;2023-08-07T05:44:53;20.30;51.80
76789;DHT22;65740;52.464;13.446;2023-08-07T05:47:19;20.30;51.80
76789;DHT22;65740;52.464;13.446;2023-08-07T05:49:44;20.30;51.90
76789;DHT22;65740;52.464;13.446;2023-08-07T05:52:10;20.30;51.90
76789;DHT22;65740;52.464;13.446;2023-08-07T05:54:36;20.30;51.90
76789;DHT22;65740;52.464;13.446;2023-08-07T05:57:01;20.30;51.90
76789;DHT22;65740;52.464;13.446;2023-08-07T05:59:27;20.30;51.90
76789;DHT22;65740;52.464;13.446;2023-08-07T06:01:53;20.30;51.90
76789;DHT22;65740;52.464;13.446;2023-08-07T06:04:21;20.30;51.80
76789;DHT22;65740;52.464;13.446;2023-08-07T06:06:47;20.30;51.90
76789;DHT22;65740;52.464;13.446;2023-08-07T06:09:12;20.30;51.70
76789;DHT22;65740;52.464;13.446;2023-08-07T06:11:41;20.30;51.80
76789;DHT22;65740;52.464;13.446;2023-08-07T06:14:06;20.30;51.80
76789;DHT22;65740;52.464;13.446;2023-08-07T06:16:32;20.30;52.50
76789;DHT22;65740;52.464;13.446;2023-08-07T06:18:58;20.30;51.80
76789;DHT22;65740;52.464;13.446;2023-08-07T06:21:23;20.30;51.80
76789;DHT22;65740;52.464;13.446;2023-08-07T06:23:49;20.30;51.90
76789;DHT22;65740;52.464;13.446;2023-08-07T06:26:15;20.30;51.90
76789;DHT22;65740;52.464;13.446;2023-08-07T06:28:42;20.30;51.90
76789;DHT22;65740;52.464;13.446;2023-08-07T06:31:09;20.30;51.90
76789;DHT22;65740;52.464;13.446;2023-08-07T06:33:36;20.30;51.80
76789;DHT22;65740;52.464;13.446;2023-08-07T06:36:02;20.30;51.80
76789;DHT22;65740;52.464;13.446;2023-08-07T06:38:29;20.30;51.70
76789;DHT22;65740;52.464;13.446;2023-08-07T06:40:55;20.30;52.30
76789;DHT22;65740;52.464;13.446;2023-08-07T06:43:20;20.30;52.20
76789;DHT22;65740;52.464;13.446;2023-08-07T06:48:13;20.30;52.50
76789;DHT22;65740;52.464;13.446;2023-08-07T06:50:39;20.30;52.70
76789;DHT22;65740;52.464;13.446;2023-08-07T06:53:04;20.30;52.50
76789;DHT22;65740;52.464;13.446;2023-08-07T06:55:30;20.30;52.10
76789;DHT22;65740;52.464;13.446;2023-08-07T06:57:56;20.30;52.50
76789;DHT22;65740;52.464;13.446;2023-08-07T07:00:21;20.30;52.60
76789;DHT22;65740;52.464;13.446;2023-08-07T07:02:47;20.30;52.50
76789;DHT22;65740;52.464;13.446;2023-08-07T07:05:13;20.40;52.90
76789;DHT22;65740;52.464;13.446;2023-08-07T07:07:38;20.30;52.80
76789;DHT22;65740;52.464;13.446;2023-08-07T07:10:04;20.40;52.70
76789;DHT22;65740;52.464;13.446;2023-08-07T07:12:30;20.40;52.20
76789;DHT22;65740;52.464;13.446;2023-08-07T07:14:56;20.40;52.30
76789;DHT22;65740;52.464;13.446;2023-08-07T07:17:21;20.30;52.20
76789;DHT22;65740;52.464;13.446;2023-08-07T07:19:47;20.40;52.50
76789;DHT22;65740;52.464;13.446;2023-08-07T07:22:12;20.30;52.30
76789;DHT22;65740;52.464;13.446;2023-08-07T07:24:38;20.30;53.00
76789;DHT22;65740;52.464;13.446;2023-08-07T07:27:04;20.30;53.60
76789;DHT22;65740;52.464;13.446;2023-08-07T07:29:30;20.30;54.10
76789;DHT22;65740;52.464;13.446;2023-08-07T07:31:56;20.40;54.40
76789;DHT22;65740;52.464;13.446;2023-08-07T07:34:22;20.40;54.40
76789;DHT22;65740;52.464;13.446;2023-08-07T07:36:47;20.40;54.30
76789;DHT22;65740;52.464;13.446;2023-08-07T07:39:13;20.40;54.20
76789;DHT22;65740;52.464;13.446;2023-08-07T07:41:38;20.40;54.00
76789;DHT22;65740;52.464;13.446;2023-08-07T07:44:04;20.40;54.10
76789;DHT22;65740;52.464;13.446;2023-08-07T07:46:30;20.40;54.10
76789;DHT22;65740;52.464;13.446;2023-08-07T07:48:57;20.40;54.60
76789;DHT22;65740;52.464;13.446;2023-08-07T07:51:23;20.40;54.70
76789;DHT22;65740;52.464;13.446;2023-08-07T07:53:49;20.40;54.00
76789;DHT22;65740;52.464;13.446;2023-08-07T07:56:14;20.40;53.70
76789;DHT22;65740;52.464;13.446;2023-08-07T07:58:40;20.40;53.80
76789;DHT22;65740;52.464;13.446;2023-08-07T08:01:06;20.40;53.80
76789;DHT22;65740;52.464;13.446;2023-08-07T08:03:32;20.50;54.20
76789;DHT22;65740;52.464;13.446;2023-08-07T08:05:58;20.40;53.50
76789;DHT22;65740;52.464;13.446;2023-08-07T08:08:24;20.50;53.60
76789;DHT22;65740;52.464;13.446;2023-08-07T08:10:50;20.40;53.20
76789;DHT22;65740;52.464;13.446;2023-08-07T08:13:17;20.50;53.30
76789;DHT22;65740;52.464;13.446;2023-08-07T08:15:43;20.40;53.60
76789;DHT22;65740;52.464;13.446;2023-08-07T08:18:09;20.40;53.50
76789;DHT22;65740;52.464;13.446;2023-08-07T08:20:35;20.50;53.40
76789;DHT22;65740;52.464;13.446;2023-08-07T08:23:01;20.50;53.40
76789;DHT22;65740;52.464;13.446;2023-08-07T08:25:26;20.50;53.40
76789;DHT22;65740;52.464;13.446;2023-08-07T08:27:52;20.50;53.30
76789;DHT22;65740;52.464;13.446;2023-08-07T08:30:18;20.50;53.50
76789;DHT22;65740;52.464;13.446;2023-08-07T08:32:43;20.50;53.40
76789;DHT22;65740;52.464;13.446;2023-08-07T08:35:09;20.50;53.70
76789;DHT22;65740;52.464;13.446;2023-08-07T08:37:35;20.50;54.10
76789;DHT22;65740;52.464;13.446;2023-08-07T08:40:01;20.50;54.20
76789;DHT22;65740;52.464;13.446;2023-08-07T08:42:26;20.50;54.60
76789;DHT22;65740;52.464;13.446;2023-08-07T08:44:54;20.40;54.70
76789;DHT22;65740;52.464;13.446;2023-08-07T08:47:26;20.40;54.90
76789;DHT22;65740;52.464;13.446;2023-08-07T08:50:01;20.50;54.60
76789;DHT22;65740;52.464;13.446;2023-08-07T08:52:31;20.50;54.50
76789;DHT22;65740;52.464;13.446;2023-08-07T08:54:57;20.50;54.50
76789;DHT22;65740;52.464;13.446;2023-08-07T08:57:25;20.50;54.40
76789;DHT22;65740;52.464;13.446;2023-08-07T08:59:51;20.50;54.50
76789;DHT22;65740;52.464;13.446;2023-08-07T09:02:17;20.60;54.40
76789;DHT22;65740;52.464;13.446;2023-08-07T09:04:46;20.60;54.40
76789;DHT22;65740;52.464;13.446;2023-08-07T09:07:14;20.60;54.30
76789;DHT22;65740;52.464;13.446;2023-08-07T09:09:40;20.60;54.20
76789;DHT22;65740;52.464;13.446;2023-08-07T09:12:11;20.60;54.20
76789;DHT22;65740;52.464;13.446;2023-08-07T09:14:41;20.60;54.30
76789;DHT22;65740;52.464;13.446;2023-08-07T09:17:11;20.70;54.30
76789;DHT22;65740;52.464;13.446;2023-08-07T09:19:39;20.70;54.10
76789;DHT22;65740;52.464;13.446;2023-08-07T09:22:05;20.70;54.00
76789;DHT22;65740;52.464;13.446;2023-08-07T09:24:31;20.70;54.00
76789;DHT22;65740;52.464;13.446;2023-08-07T09:26:58;20.70;54.20
76789;DHT22;65740;52.464;13.446;2023-08-07T09:29:24;20.70;54.20
76789;DHT22;65740;52.464;13.446;2023-08-07T09:31:49;20.70;54.50
76789;DHT22;65740;52.464;13.446;2023-08-07T09:34:19;20.80;54.40
76789;DHT22;65740;52.464;13.446;2023-08-07T09:36:45;20.80;54.60
76789;DHT22;65740;52.464;13.446;2023-08-07T09:39:11;20.80;55.70
76789;DHT22;65740;52.464;13.446;2023-08-07T09:41:37;20.70;56.10
76789;DHT22;65740;52.464;13.446;2023-08-07T09:44:07;20.80;56.20
76789;DHT22;65740;52.464;13.446;2023-08-07T09:46:41;20.80;56.20
76789;DHT22;65740;52.464;13.446;2023-08-07T09:49:07;20.80;56.10
76789;DHT22;65740;52.464;13.446;2023-08-07T09:51:45;20.80;55.90
76789;DHT22;65740;52.464;13.446;2023-08-07T09:54:14;20.80;56.10
76789;DHT22;65740;52.464;13.446;2023-08-07T09:56:40;20.90;56.20
76789;DHT22;65740;52.464;13.446;2023-08-07T09:59:07;20.90;56.20
76789;DHT22;65740;52.464;13.446;2023-08-07T10:01:36;20.80;56.20
76789;DHT22;65740;52.464;13.446;2023-08-07T10:04:03;20.90;56.20
76789;DHT22;65740;52.464;13.446;2023-08-07T10:06:29;20.90;56.20
76789;DHT22;65740;52.464;13.446;2023-08-07T10:08:56;20.90;56.20
76789;DHT22;65740;52.464;13.446;2023-08-07T10:11:23;20.90;56.20
76789;DHT22;65740;52.464;13.446;2023-08-07T10:13:49;20.90;56.20
76789;DHT22;65740;52.464;13.446;2023-08-07T10:16:15;20.90;56.20
76789;DHT22;65740;52.464;13.446;2023-08-07T10:18:41;20.90;56.00
76789;DHT22;65740;52.464;13.446;2023-08-07T10:21:06;20.90;55.90
76789;DHT22;65740;52.464;13.446;2023-08-07T10:23:36;20.90;55.70
76789;DHT22;65740;52.464;13.446;2023-08-07T10:26:06;21.00;55.70
76789;DHT22;65740;52.464;13.446;2023-08-07T10:28:35;21.00;55.40
76789;DHT22;65740;52.464;13.446;2023-08-07T10:31:04;21.00;55.00
76789;DHT22;65740;52.464;13.446;2023-08-07T10:33:31;21.00;54.70
76789;DHT22;65740;52.464;13.446;2023-08-07T10:35:57;21.00;54.70
76789;DHT22;65740;52.464;13.446;2023-08-07T10:38:25;21.10;54.80
76789;DHT22;65740;52.464;13.446;2023-08-07T10:41:08;21.00;55.20
76789;DHT22;65740;52.464;13.446;2023-08-07T10:43:38;20.90;54.40
76789;DHT22;65740;52.464;13.446;2023-08-07T10:46:20;20.90;54.20
76789;DHT22;65740;52.464;13.446;2023-08-07T10:48:47;20.90;54.20
76789;DHT22;65740;52.464;13.446;2023-08-07T10:51:18;20.90;54.10
76789;DHT22;65740;52.464;13.446;2023-08-07T10:53:47;20.90;53.80
76789;DHT22;65740;52.464;13.446;2023-08-07T10:56:16;21.00;53.80
76789;DHT22;65740;52.464;13.446;2023-08-07T10:58:49;21.00;53.70
76789;DHT22;65740;52.464;13.446;2023-08-07T11:01:41;21.00;53.70
76789;DHT22;65740;52.464;13.446;2023-08-07T11:04:13;21.00;53.60
76789;DHT22;65740;52.464;13.446;2023-08-07T11:06:40;21.10;53.40
76789;DHT22;65740;52.464;13.446;2023-08-07T11:09:07;21.10;53.30
76789;DHT22;65740;52.464;13.446;2023-08-07T11:11:44;21.10;53.00
76789;DHT22;65740;52.464;13.446;2023-08-07T11:14:16;21.10;53.30
76789;DHT22;65740;52.464;13.446;2023-08-07T11:16:43;21.20;53.20
76789;DHT22;65740;52.464;13.446;2023-08-07T11:19:09;21.30;53.30
76789;DHT22;65740;52.464;13.446;2023-08-07T11:21:35;21.40;53.50
76789;DHT22;65740;52.464;13.446;2023-08-07T11:24:02;21.40;53.70
76789;DHT22;65740;52.464;13.446;2023-08-07T11:26:28;21.40;53.60
76789;DHT22;65740;52.464;13.446;2023-08-07T11:28:54;21.50;53.90
76789;DHT22;65740;52.464;13.446;2023-08-07T11:31:20;21.50;54.20
76789;DHT22;65740;52.464;13.446;2023-08-07T11:33:46;21.60;54.50
76789;DHT22;65740;52.464;13.446;2023-08-07T11:36:13;21.60;54.40
76789;DHT22;65740;52.464;13.446;2023-08-07T11:38:43;21.70;54.60
76789;DHT22;65740;52.464;13.446;2023-08-07T11:41:10;21.60;54.50
76789;DHT22;65740;52.464;13.446;2023-08-07T11:43:37;21.70;54.70
76789;DHT22;65740;52.464;13.446;2023-08-07T11:46:07;21.70;54.90
76789;DHT22;65740;52.464;13.446;2023-08-07T11:48:35;21.70;55.00
76789;DHT22;65740;52.464;13.446;2023-08-07T11:51:02;21.70;55.40
76789;DHT22;65740;52.464;13.446;2023-08-07T11:53:30;21.70;55.10
76789;DHT22;65740;52.464;13.446;2023-08-07T11:58:25;21.80;55.10
76789;DHT22;65740;52.464;13.446;2023-08-07T12:00:51;21.70;55.40
76789;DHT22;65740;52.464;13.446;2023-08-07T12:03:29;21.70;56.10
76789;DHT22;65740;52.464;13.446;2023-08-07T12:05:59;21.80;55.60
76789;DHT22;65740;52.464;13.446;2023-08-07T12:08:41;21.80;55.70
76789;DHT22;65740;52.464;13.446;2023-08-07T12:11:11;21.80;55.60
76789;DHT22;65740;52.464;13.446;2023-08-07T12:13:42;21.80;55.80
76789;DHT22;65740;52.464;13.446;2023-08-07T12:16:08;21.80;55.90
76789;DHT22;65740;52.464;13.446;2023-08-07T12:18:35;21.80;56.00
76789;DHT22;65740;52.464;13.446;2023-08-07T12:21:05;21.90;56.00
76789;DHT22;65740;52.464;13.446;2023-08-07T12:23:35;21.90;56.10
76789;DHT22;65740;52.464;13.446;2023-08-07T12:26:01;21.90;56.40
76789;DHT22;65740;52.464;13.446;2023-08-07T12:28:27;21.90;56.60
76789;DHT22;65740;52.464;13.446;2023-08-07T12:30:53;21.90;55.90
76789;DHT22;65740;52.464;13.446;2023-08-07T12:33:19;21.90;55.70
76789;DHT22;65740;52.464;13.446;2023-08-07T12:35:45;21.90;55.80
76789;DHT22;65740;52.464;13.446;2023-08-07T12:38:10;22.00;55.80
76789;DHT22;65740;52.464;13.446;2023-08-07T12:40:38;22.00;55.80
76789;DHT22;65740;52.464;13.446;2023-08-07T12:43:04;21.90;55.90
76789;DHT22;65740;52.464;13.446;2023-08-07T12:45:30;22.00;55.80
76789;DHT22;65740;52.464;13.446;2023-08-07T12:47:56;22.00;55.80
76789;DHT22;65740;52.464;13.446;2023-08-07T12:50:22;22.00;55.70
76789;DHT22;65740;52.464;13.446;2023-08-07T12:52:47;22.00;55.60
76789;DHT22;65740;52.464;13.446;2023-08-07T12:55:13;22.00;55.60
76789;DHT22;65740;52.464;13.446;2023-08-07T12:57:42;22.00;56.20
76789;DHT22;65740;52.464;13.446;2023-08-07T13:00:09;22.00;55.60
76789;DHT22;65740;52.464;13.446;2023-08-07T13:02:44;22.00;55.70
76789;DHT22;65740;52.464;13.446;2023-08-07T13:05:10;22.00;55.70
76789;DHT22;65740;52.464;13.446;2023-08-07T13:07:39;22.00;55.60
76789;DHT22;65740;52.464;13.446;2023-08-07T13:10:06;22.00;55.60
76789;DHT22;65740;52.464;13.446;2023-08-07T13:12:36;22.00;55.50
76789;DHT22;65740;52.464;13.446;2023-08-07T13:15:06;22.10;55.50
76789;DHT22;65740;52.464;13.446;2023-08-07T13:17:32;22.10;55.50
76789;DHT22;65740;52.464;13.446;2023-08-07T13:19:59;22.10;55.40
76789;DHT22;65740;52.464;13.446;2023-08-07T13:22:25;22.10;55.80
76789;DHT22;65740;52.464;13.446;2023-08-07T13:24:51;22.10;55.80
76789;DHT22;65740;52.464;13.446;2023-08-07T13:27:17;22.10;55.70
76789;DHT22;65740;52.464;13.446;2023-08-07T13:29:43;22.10;55.80
76789;DHT22;65740;52.464;13.446;2023-08-07T13:32:09;22.20;55.70
76789;DHT22;65740;52.464;13.446;2023-08-07T13:34:38;22.20;55.70
76789;DHT22;65740;52.464;13.446;2023-08-07T13:37:07;22.20;55.70
76789;DHT22;65740;52.464;13.446;2023-08-07T13:39:33;22.20;55.80
76789;DHT22;65740;52.464;13.446;2023-08-07T13:41:59;22.20;56.20
76789;DHT22;65740;52.464;13.446;2023-08-07T13:44:28;22.10;55.80
76789;DHT22;65740;52.464;13.446;2023-08-07T13:46:54;22.10;55.90
76789;DHT22;65740;52.464;13.446;2023-08-07T13:49:20;22.20;56.00
76789;DHT22;65740;52.464;13.446;2023-08-07T13:51:46;22.20;56.00
76789;DHT22;65740;52.464;13.446;2023-08-07T13:54:12;22.20;56.00
76789;DHT22;65740;52.464;13.446;2023-08-07T13:56:38;22.20;56.10
76789;DHT22;65740;52.464;13.446;2023-08-07T13:59:03;22.20;56.20
76789;DHT22;65740;52.464;13.446;2023-08-07T14:01:29;22.30;56.30
76789;DHT22;65740;52.464;13.446;2023-08-07T14:03:56;22.30;56.10
76789;DHT22;65740;52.464;13.446;2023-08-07T14:06:21;22.30;55.90
76789;DHT22;65740;52.464;13.446;2023-08-07T14:08:47;22.30;55.80
76789;DHT22;65740;52.464;13.446;2023-08-07T14:11:13;22.30;56.00
76789;DHT22;65740;52.464;13.446;2023-08-07T14:13:40;22.30;56.00
76789;DHT22;65740;52.464;13.446;2023-08-07T14:16:06;22.30;55.70
76789;DHT22;65740;52.464;13.446;2023-08-07T14:18:31;22.30;55.80
76789;DHT22;65740;52.464;13.446;2023-08-07T14:20:57;22.30;55.90
76789;DHT22;65740;52.464;13.446;2023-08-07T14:23:23;22.30;55.90
76789;DHT22;65740;52.464;13.446;2023-08-07T14:25:48;22.30;55.90
76789;DHT22;65740;52.464;13.446;2023-08-07T14:28:16;22.30;55.50
76789;DHT22;65740;52.464;13.446;2023-08-07T14:30:42;22.30;55.70
76789;DHT22;65740;52.464;13.446;2023-08-07T14:33:08;22.40;55.60
76789;DHT22;65740;52.464;13.446;2023-08-07T14:35:33;22.30;55.30
76789;DHT22;65740;52.464;13.446;2023-08-07T14:37:59;22.40;55.20
76789;DHT22;65740;52.464;13.446;2023-08-07T14:40:25;22.40;55.00
76789;DHT22;65740;52.464;13.446;2023-08-07T14:42:51;22.40;55.00
76789;DHT22;65740;52.464;13.446;2023-08-07T14:45:18;22.40;55.00
76789;DHT22;65740;52.464;13.446;2023-08-07T14:47:43;22.40;55.00
76789;DHT22;65740;52.464;13.446;2023-08-07T14:50:09;22.30;54.60
76789;DHT22;65740;52.464;13.446;2023-08-07T14:52:36;22.30;54.50
76789;DHT22;65740;52.464;13.446;2023-08-07T14:55:03;22.30;54.80
76789;DHT22;65740;52.464;13.446;2023-08-07T14:57:29;22.40;55.00
76789;DHT22;65740;52.464;13.446;2023-08-07T14:59:54;22.40;54.60
76789;DHT22;65740;52.464;13.446;2023-08-07T15:02:20;22.40;54.40
76789;DHT22;65740;52.464;13.446;2023-08-07T15:04:45;22.40;54.30
76789;DHT22;65740;52.464;13.446;2023-08-07T15:07:12;22.40;54.60
76789;DHT22;65740;52.464;13.446;2023-08-07T15:09:38;22.40;54.40
76789;DHT22;65740;52.464;13.446;2023-08-07T15:12:04;22.40;54.40
76789;DHT22;65740;52.464;13.446;2023-08-07T15:14:32;22.40;54.40
76789;DHT22;65740;52.464;13.446;2023-08-07T15:16:57;22.40;54.00
76789;DHT22;65740;52.464;13.446;2023-08-07T15:19:23;22.40;54.20